createdAt,value
2019-02-19T00:15:38.396Z,19.00
2019-02-19T00:19:01.385Z,22.50
2019-02-19T00:21:43.517Z,23.50
2019-02-19T00:24:16.645Z,26.25
2019-02-19T00:26:56.079Z,27.00
2019-02-19T00:29:58.773Z,27.00
2019-02-19T00:32:40.183Z,27.00
2019-02-19T00:35:37.173Z,28.00
2019-02-19T00:38:06.454Z,27.00
2019-02-19T00:40:37.021Z,20.50
2019-02-19T00:43:06.269Z,18.00
2019-02-19T00:45:36.877Z,18.50
2019-02-19T00:48:06.183Z,13.00
2019-02-19T00:50:36.399Z,15.00
2019-02-19T00:53:06.911Z,16.50
2019-02-19T00:55:36.124Z,19.00
2019-02-19T00:58:07.827Z,14.50
2019-02-19T01:00:38.002Z,17.00
2019-02-19T01:03:07.182Z,17.00
2019-02-19T01:05:36.280Z,15.50
2019-02-19T01:08:05.391Z,15.00
2019-02-19T01:10:34.754Z,15.00
2019-02-19T01:13:04.122Z,18.00
2019-02-19T01:15:33.223Z,15.00
2019-02-19T01:18:03.652Z,18.50
2019-02-19T01:20:32.688Z,16.00
2019-02-19T01:23:01.709Z,19.50
2019-02-19T01:25:31.199Z,18.50
2019-02-19T01:28:00.289Z,18.50
2019-02-19T01:30:29.380Z,22.50
2019-02-19T01:32:58.530Z,23.50
2019-02-19T01:35:27.663Z,21.00
2019-02-19T01:37:56.740Z,23.00
2019-02-19T01:40:26.237Z,23.00
2019-02-19T01:42:55.323Z,25.00
2019-02-19T01:45:24.545Z,25.50
2019-02-19T01:47:53.565Z,23.00
2019-02-19T01:50:22.787Z,23.50
2019-02-19T01:52:52.017Z,26.00
2019-02-19T01:55:21.133Z,25.00
2019-02-19T01:57:50.154Z,26.50
2019-02-19T02:00:19.394Z,25.50
2019-02-19T02:02:48.584Z,25.50
2019-02-19T02:05:19.226Z,27.50
2019-02-19T02:07:48.317Z,23.00
2019-02-19T02:10:17.405Z,26.00
2019-02-19T02:12:46.463Z,31.00
2019-02-19T02:15:15.607Z,27.50
2019-02-19T02:17:44.667Z,27.00
2019-02-19T02:20:19.497Z,25.00
2019-02-19T02:22:55.659Z,29.00
2019-02-19T02:25:33.215Z,25.75
2019-02-19T02:28:14.812Z,25.75
2019-02-19T02:30:50.687Z,25.75
2019-02-19T02:33:44.634Z,25.75
2019-02-19T02:36:19.716Z,21.75
2019-02-19T02:39:21.738Z,21.00
2019-02-19T02:41:50.925Z,23.50
2019-02-19T02:44:21.216Z,20.50
2019-02-19T02:46:50.300Z,18.50
2019-02-19T02:49:19.333Z,17.00
2019-02-19T02:52:02.346Z,18.00
2019-02-19T02:55:10.271Z,20.50
2019-02-19T02:58:06.368Z,18.00
2019-02-19T03:04:48.504Z,16.00
2019-02-19T03:07:41.998Z,15.50
2019-02-19T03:16:43.878Z,17.00
2019-02-19T03:16:57.967Z,17.00
2019-02-19T03:19:13.087Z,15.00
2019-02-19T03:21:42.185Z,17.50
2019-02-19T03:24:11.237Z,15.00
2019-02-19T03:26:40.338Z,14.00
2019-02-19T03:29:09.536Z,15.00
2019-02-19T03:31:38.711Z,17.00
2019-02-19T03:34:07.861Z,20.50
2019-02-19T03:46:14.360Z,16.50
2019-02-19T03:49:10.034Z,17.50
2019-02-19T03:52:06.284Z,14.00
2019-02-19T03:54:36.840Z,13.50
2019-02-19T03:57:05.922Z,10.50
2019-02-19T03:59:35.157Z,13.00
2019-02-19T04:02:06.624Z,10.50
2019-02-19T04:08:18.436Z,16.00
2019-02-19T04:11:02.075Z,13.50
2019-02-19T04:14:25.075Z,13.00
2019-02-19T04:17:50.760Z,11.00
2019-02-19T04:20:19.936Z,12.00
2019-02-19T04:22:49.004Z,13.00
2019-02-19T04:25:18.474Z,14.00
2019-02-19T04:27:49.162Z,13.50
2019-02-19T04:30:18.392Z,13.50
2019-02-19T04:32:48.724Z,11.00
2019-02-19T04:35:17.914Z,11.00
2019-02-19T04:37:48.368Z,12.00
2019-02-19T04:40:18.927Z,12.00
2019-02-19T04:42:47.992Z,11.50
2019-02-19T04:45:17.281Z,12.00
2019-02-19T04:47:46.596Z,8.50
2019-02-19T04:50:33.204Z,10.00
2019-02-19T04:53:01.120Z,10.00
2019-02-19T04:55:30.381Z,8.00
2019-02-19T04:58:09.404Z,9.00
2019-02-19T05:00:36.105Z,10.50
2019-02-19T05:03:07.525Z,12.50
2019-02-19T05:05:36.692Z,10.00
2019-02-19T05:08:05.855Z,8.00
2019-02-19T05:10:34.971Z,9.00
2019-02-19T05:13:03.998Z,7.50
2019-02-19T05:15:34.647Z,8.00
2019-02-19T05:18:03.741Z,8.50
2019-02-19T05:20:32.936Z,8.50
2019-02-19T05:23:02.016Z,10.00
2019-02-19T05:25:32.482Z,6.50
2019-02-19T05:28:03.464Z,9.00
2019-02-19T05:30:34.987Z,9.50
2019-02-19T05:33:05.772Z,8.00
2019-02-19T05:35:45.718Z,6.00
2019-02-19T05:38:14.765Z,7.00
2019-02-19T05:40:43.867Z,6.00
2019-02-19T05:43:15.487Z,7.00
2019-02-19T05:46:02.833Z,6.00
2019-02-19T05:48:33.992Z,6.00
2019-02-19T05:51:03.332Z,2.50
2019-02-19T05:53:32.822Z,4.00
2019-02-19T05:56:02.033Z,4.00
2019-02-19T05:58:33.728Z,4.00
2019-02-19T06:01:06.346Z,6.00
2019-02-19T06:03:35.394Z,4.00
2019-02-19T06:06:06.411Z,4.00
2019-02-19T06:08:38.986Z,4.00
2019-02-19T06:11:08.403Z,4.00
2019-02-19T06:13:37.488Z,3.00
2019-02-19T06:16:06.562Z,5.50
2019-02-19T06:18:37.011Z,4.00
2019-02-19T06:21:06.482Z,4.00
2019-02-19T06:23:35.620Z,6.00
2019-02-19T06:26:06.971Z,4.00
2019-02-19T06:28:37.294Z,4.00
2019-02-19T06:31:06.904Z,4.00
2019-02-19T06:33:36.937Z,4.00
2019-02-19T06:36:06.041Z,3.50
2019-02-19T06:38:35.114Z,3.50
2019-02-19T06:41:06.307Z,4.00
2019-02-19T06:43:37.763Z,2.50
2019-02-19T06:46:06.920Z,4.00
2019-02-19T06:48:35.999Z,4.00
2019-02-19T06:51:05.094Z,2.00
2019-02-19T06:53:34.047Z,4.00
2019-02-19T06:56:03.061Z,2.50
2019-02-19T06:58:32.124Z,4.50
2019-02-19T07:01:01.706Z,4.00
2019-02-19T07:03:43.788Z,8.00
2019-02-19T07:06:15.590Z,8.00
2019-02-19T07:08:44.598Z,9.50
2019-02-19T07:11:13.635Z,10.00
2019-02-19T07:13:42.661Z,10.00
2019-02-19T07:16:13.067Z,10.00
2019-02-19T07:18:42.079Z,12.00
2019-02-19T07:21:13.697Z,11.50
2019-02-19T07:23:42.793Z,14.00
2019-02-19T07:26:12.727Z,18.00
2019-02-19T07:28:43.863Z,16.00
2019-02-19T07:31:15.384Z,19.50
2019-02-19T07:33:45.260Z,16.50
2019-02-19T07:36:15.613Z,18.00
2019-02-19T07:38:44.633Z,20.00
2019-02-19T07:41:13.905Z,21.50
2019-02-19T07:43:42.920Z,20.50
2019-02-19T07:46:14.202Z,16.00
2019-02-19T07:48:43.218Z,21.50
2019-02-19T07:51:12.216Z,20.00
2019-02-19T07:53:41.272Z,20.00
2019-02-19T07:56:10.383Z,17.00
2019-02-19T07:58:39.386Z,21.00
2019-02-19T08:01:08.515Z,21.00
2019-02-19T08:03:37.705Z,23.50
2019-02-19T08:06:06.905Z,20.50
2019-02-19T08:08:35.922Z,18.50
2019-02-19T08:11:05.994Z,20.00
2019-02-19T08:13:35.038Z,20.00
2019-02-19T08:16:04.147Z,15.00
2019-02-19T08:18:33.162Z,21.00
2019-02-19T08:21:02.539Z,17.50
2019-02-19T08:23:31.683Z,18.50
2019-02-19T08:26:01.904Z,22.00
2019-02-19T08:28:30.852Z,21.00
2019-02-19T08:30:59.863Z,20.50
2019-02-19T08:33:28.877Z,21.50
2019-02-19T08:35:57.924Z,15.00
2019-02-19T08:38:28.048Z,20.00
2019-02-19T08:40:57.078Z,21.00
2019-02-19T08:43:29.134Z,16.00
2019-02-19T08:46:01.470Z,15.00
2019-02-19T08:48:30.426Z,23.00
2019-02-19T08:50:59.435Z,18.00
2019-02-19T08:53:28.478Z,17.50
2019-02-19T08:55:57.591Z,20.00
2019-02-19T08:58:26.731Z,19.00
2019-02-19T09:00:55.807Z,21.50
2019-02-19T09:03:24.864Z,20.50
2019-02-19T09:05:53.915Z,20.50
2019-02-19T09:08:22.963Z,17.00
2019-02-19T09:10:51.999Z,17.50
2019-02-19T09:13:21.660Z,15.50
2019-02-19T09:15:50.730Z,20.00
2019-02-19T09:18:19.766Z,17.50
2019-02-19T09:20:48.743Z,16.00
2019-02-19T09:23:17.742Z,16.00
2019-02-19T09:25:46.948Z,13.00
2019-02-19T09:28:21.144Z,15.00
2019-02-19T09:30:52.263Z,14.00
2019-02-19T09:33:21.394Z,18.50
2019-02-19T09:35:50.423Z,19.75
2019-02-19T09:38:20.114Z,14.75
2019-02-19T09:40:49.118Z,17.25
2019-02-19T09:43:18.141Z,17.25
2019-02-19T09:47:22.308Z,11.75
2019-02-19T09:48:17.957Z,19.75
2019-02-19T09:50:46.983Z,15.75
2019-02-19T09:53:20.303Z,16.75
2019-02-19T09:55:50.662Z,12.75
2019-02-19T09:58:19.701Z,11.75
2019-02-19T10:00:49.513Z,17.50
2019-02-19T10:03:20.633Z,18.00
2019-02-19T10:05:51.326Z,17.00
2019-02-19T10:08:20.343Z,15.00
2019-02-19T10:10:49.389Z,16.00
2019-02-19T10:13:18.391Z,18.00
2019-02-19T10:15:54.181Z,16.00
2019-02-19T10:18:25.533Z,16.50
2019-02-19T10:20:57.387Z,16.50
2019-02-19T10:23:26.400Z,15.50
2019-02-19T10:25:56.640Z,14.50
2019-02-19T10:28:25.871Z,17.00
2019-02-19T10:30:54.845Z,19.00
2019-02-19T10:33:23.945Z,16.00
2019-02-19T10:35:54.162Z,17.00
2019-02-19T10:38:23.179Z,20.00
2019-02-19T10:40:52.203Z,12.50
2019-02-19T10:43:25.180Z,16.00
2019-02-19T10:45:54.315Z,18.00
2019-02-19T10:48:23.356Z,16.00
2019-02-19T10:50:53.182Z,20.50
2019-02-19T10:53:22.500Z,19.00
2019-02-19T10:55:51.504Z,15.00
2019-02-19T10:58:22.863Z,15.00
2019-02-19T11:00:51.822Z,11.50
2019-02-19T11:03:20.995Z,16.50
2019-02-19T11:05:51.321Z,15.50
2019-02-19T11:08:20.779Z,12.00
2019-02-19T11:10:50.882Z,18.75
2019-02-19T11:13:20.035Z,15.50
2019-02-19T11:15:49.059Z,16.00
2019-02-19T11:18:18.080Z,19.25
2019-02-19T11:20:47.098Z,16.00
2019-02-19T11:23:16.214Z,14.00
2019-02-19T11:28:29.498Z,15.00
2019-02-19T11:30:58.774Z,17.00
2019-02-19T11:33:27.828Z,18.75
2019-02-19T11:35:56.915Z,14.50
2019-02-19T11:38:28.292Z,12.00
2019-02-19T11:40:57.512Z,13.00
2019-02-19T11:43:27.955Z,17.00
2019-02-19T11:45:56.971Z,18.00
2019-02-19T11:48:26.118Z,15.00
2019-02-19T11:50:55.135Z,18.00
2019-02-19T11:53:24.232Z,16.00
2019-02-19T11:55:53.217Z,15.00
2019-02-19T11:58:24.551Z,16.75
2019-02-19T12:00:53.740Z,17.00
2019-02-19T12:03:22.738Z,14.50
2019-02-19T12:05:51.951Z,19.00
2019-02-19T12:08:20.962Z,15.50
2019-02-19T12:10:50.024Z,19.25
2019-02-19T12:13:19.075Z,13.00
2019-02-19T12:15:48.077Z,13.00
2019-02-19T12:18:17.563Z,18.00
2019-02-19T12:20:50.778Z,14.75
2019-02-19T12:23:17.801Z,16.00
2019-02-19T12:25:46.835Z,15.75
2019-02-19T12:28:15.883Z,14.50
2019-02-19T12:30:44.899Z,15.75
2019-02-19T12:33:15.977Z,12.50
2019-02-19T12:35:45.975Z,14.25
2019-02-19T12:38:15.252Z,12.50
2019-02-19T12:40:44.282Z,10.00
2019-02-19T12:43:13.333Z,10.00
2019-02-19T12:45:42.925Z,14.00
2019-02-19T12:48:12.012Z,13.00
2019-02-19T12:50:42.461Z,11.00
2019-02-19T12:53:11.459Z,7.50
2019-02-19T12:55:43.750Z,12.50
2019-02-19T12:58:14.104Z,11.00
2019-02-19T13:00:43.246Z,9.25
2019-02-19T13:03:12.265Z,8.50
2019-02-19T13:05:41.303Z,9.75
2019-02-19T13:08:10.313Z,9.00
2019-02-19T13:10:39.311Z,11.25
2019-02-19T13:13:08.305Z,10.75
2019-02-19T13:15:37.300Z,7.00
2019-02-19T13:18:06.352Z,7.00
2019-02-19T13:20:35.342Z,7.00
2019-02-19T13:23:04.462Z,8.50
2019-02-19T13:25:33.607Z,4.50
2019-02-19T13:28:02.622Z,6.50
2019-02-19T13:30:31.639Z,8.00
2019-02-19T13:33:03.019Z,6.50
2019-02-19T13:35:32.162Z,5.00
2019-02-19T13:38:01.243Z,5.00
2019-02-19T13:40:30.436Z,5.00
2019-02-19T13:42:59.486Z,5.00
2019-02-19T13:45:28.550Z,7.00
2019-02-19T13:48:05.752Z,3.50
2019-02-19T13:50:29.853Z,9.00
2019-02-19T13:53:10.614Z,5.50
2019-02-19T13:55:44.662Z,6.50
2019-02-19T13:58:13.691Z,5.00
2019-02-19T14:00:47.213Z,5.50
2019-02-19T14:03:16.265Z,7.00
2019-02-19T14:05:45.286Z,7.00
2019-02-19T14:08:14.968Z,7.00
2019-02-19T14:10:45.579Z,4.00
2019-02-19T14:13:14.654Z,7.00
2019-02-19T14:15:53.730Z,5.00
2019-02-19T14:18:28.939Z,3.00
2019-02-19T14:21:15.570Z,3.00
2019-02-19T14:24:02.291Z,3.00
2019-02-19T14:26:49.192Z,5.00
2019-02-19T14:29:37.230Z,3.00
2019-02-19T14:32:17.779Z,3.00
2019-02-19T14:35:04.380Z,3.00
2019-02-19T14:38:04.704Z,4.00
2019-02-19T14:40:55.183Z,3.00
2019-02-19T14:43:34.559Z,2.50
2019-02-19T14:46:32.540Z,2.50
2019-02-19T14:49:36.574Z,2.50
2019-02-19T14:52:13.050Z,2.00
2019-02-19T14:55:06.592Z,3.00
2019-02-19T14:58:06.787Z,1.00
2019-02-19T15:00:54.769Z,2.00
2019-02-19T15:03:41.889Z,1.50
2019-02-19T15:06:33.406Z,3.50
2019-02-19T15:09:33.489Z,3.00
2019-02-19T15:12:21.477Z,1.00
2019-02-19T15:15:12.884Z,1.00
2019-02-19T15:17:55.269Z,3.50
2019-02-19T15:20:45.589Z,1.00
2019-02-19T15:23:39.446Z,1.00
2019-02-19T15:26:26.191Z,0.75
2019-02-19T15:29:10.139Z,0.00
2019-02-19T15:32:04.141Z,0.00
2019-02-19T15:34:44.651Z,2.00
2019-02-19T15:37:24.004Z,1.00
2019-02-19T15:40:11.080Z,0.75
2019-02-19T15:43:05.178Z,3.00
2019-02-19T15:45:59.237Z,1.00
2019-02-19T15:48:59.570Z,1.00
2019-02-19T15:51:45.271Z,1.00
2019-02-19T15:54:42.385Z,3.00
2019-02-19T15:57:33.573Z,0.75
2019-02-19T16:00:36.688Z,0.25
2019-02-19T16:03:27.669Z,1.00
2019-02-19T16:06:24.684Z,1.00
2019-02-19T16:09:00.054Z,3.00
2019-02-19T16:11:36.337Z,3.50
2019-02-19T16:14:23.504Z,2.00
2019-02-19T16:17:08.404Z,1.50
2019-02-19T16:19:44.066Z,1.00
2019-02-19T16:22:22.827Z,1.00
2019-02-19T16:25:10.788Z,1.00
2019-02-19T16:28:02.256Z,1.50
2019-02-19T16:31:08.589Z,4.00
2019-02-19T16:33:59.705Z,3.00
2019-02-19T16:36:56.700Z,3.00
2019-02-19T16:39:43.260Z,3.00
2019-02-19T16:42:30.113Z,3.50
2019-02-19T16:45:30.490Z,5.00
2019-02-19T16:48:24.364Z,6.00
2019-02-19T16:51:11.309Z,3.00
2019-02-19T16:54:08.567Z,3.00
2019-02-19T16:56:56.568Z,2.00
2019-02-19T16:59:43.796Z,2.00
2019-02-19T17:02:20.194Z,3.00
2019-02-19T17:05:17.140Z,3.00
2019-02-19T17:08:01.027Z,1.50
2019-02-19T17:10:42.470Z,3.00
2019-02-19T17:13:30.474Z,3.00
2019-02-19T17:16:11.601Z,4.00
2019-02-19T17:18:50.942Z,1.00
2019-02-19T17:21:27.748Z,3.00
2019-02-19T17:24:10.033Z,1.00
2019-02-19T17:26:56.414Z,1.00
2019-02-19T17:29:40.084Z,1.75
2019-02-19T17:32:29.279Z,4.25
2019-02-19T17:35:07.363Z,0.00
2019-02-19T17:37:58.476Z,3.75
2019-02-19T17:40:55.504Z,3.75
2019-02-19T17:43:41.378Z,3.75
2019-02-19T17:46:21.263Z,3.75
2019-02-19T17:49:01.514Z,5.75
2019-02-19T17:51:40.294Z,5.75
2019-02-19T17:54:25.434Z,5.75
2019-02-19T17:57:05.847Z,4.25
2019-02-19T17:59:47.483Z,5.75
2019-02-19T18:02:29.290Z,4.25
2019-02-19T18:05:06.920Z,4.25
2019-02-19T18:07:49.585Z,5.25
2019-02-19T18:10:29.397Z,7.75
2019-02-19T18:13:26.696Z,5.75
2019-02-19T18:16:19.109Z,6.00
2019-02-19T18:18:51.041Z,6.00
2019-02-19T18:21:20.815Z,6.25
2019-02-19T18:23:49.838Z,10.25
2019-02-19T18:26:21.345Z,6.75
2019-02-19T18:28:50.485Z,6.75
2019-02-19T18:31:19.598Z,10.25
2019-02-19T18:33:49.378Z,6.75
2019-02-19T18:36:21.759Z,7.25
2019-02-19T18:38:52.919Z,7.25
2019-02-19T18:41:22.756Z,5.75
2019-02-19T18:43:52.030Z,6.75
2019-02-19T18:46:25.560Z,9.25
2019-02-19T18:49:03.832Z,8.25
2019-02-19T18:51:34.072Z,5.75
2019-02-19T18:54:04.107Z,8.25
2019-02-19T18:56:33.337Z,10.75
2019-02-19T18:59:06.166Z,13.75
2019-02-19T19:01:38.079Z,14.25
2019-02-19T19:04:07.360Z,13.75
2019-02-19T19:06:36.568Z,12.75
2019-02-19T19:09:08.345Z,13.25
2019-02-19T19:11:38.206Z,11.75
2019-02-19T19:14:07.350Z,9.50
2019-02-19T19:16:57.540Z,9.00
2019-02-19T19:19:26.677Z,8.50
2019-02-19T19:21:55.831Z,10.50
2019-02-19T19:24:24.957Z,12.00
2019-02-19T19:26:56.945Z,10.50
2019-02-19T19:29:26.082Z,8.00
2019-02-19T19:31:55.188Z,8.00
2019-02-19T19:34:24.220Z,9.50
2019-02-19T19:36:54.397Z,9.00
2019-02-19T19:39:23.469Z,7.50
2019-02-19T19:41:52.580Z,7.00
2019-02-19T19:44:21.662Z,10.00
2019-02-19T19:46:50.792Z,10.00
2019-02-19T19:49:21.115Z,10.50
2019-02-19T19:51:51.659Z,9.50
2019-02-19T19:54:23.451Z,10.50
2019-02-19T19:56:57.103Z,9.00
2019-02-19T19:59:29.428Z,10.00
2019-02-19T20:01:59.424Z,12.00
2019-02-19T20:04:28.495Z,8.50
2019-02-19T20:06:57.656Z,10.00
2019-02-19T20:09:27.342Z,9.00
2019-02-19T20:11:56.460Z,8.50
2019-02-19T20:14:25.553Z,8.50
2019-02-19T20:16:54.622Z,8.00
2019-02-19T20:19:23.721Z,16.00
2019-02-19T20:21:54.085Z,12.00
2019-02-19T20:24:23.104Z,14.00
2019-02-19T20:26:58.149Z,14.50
2019-02-19T20:29:29.298Z,13.50
2019-02-19T20:31:58.506Z,14.00
2019-02-19T20:34:27.580Z,14.00
2019-02-19T20:36:56.744Z,6.50
2019-02-19T20:39:26.258Z,9.00
2019-02-19T20:41:55.506Z,10.00
2019-02-19T20:44:25.072Z,8.00
2019-02-19T20:46:55.136Z,9.00
2019-02-19T20:49:24.238Z,14.00
2019-02-19T20:51:55.628Z,12.50
2019-02-19T20:54:24.658Z,14.00
2019-02-19T20:56:54.821Z,11.50
2019-02-19T20:59:23.743Z,18.00
2019-02-19T21:01:53.455Z,13.00
2019-02-19T21:04:22.472Z,12.00
2019-02-19T21:06:52.668Z,12.00
2019-02-19T21:09:21.807Z,8.00
2019-02-19T21:11:50.838Z,8.50
2019-02-19T21:14:21.125Z,8.00
2019-02-19T21:16:50.229Z,10.00
2019-02-19T21:19:19.228Z,8.00
2019-02-19T21:21:48.349Z,12.00
2019-02-19T21:24:17.445Z,7.00
2019-02-19T21:26:48.758Z,8.00
2019-02-19T21:29:17.737Z,8.00
2019-02-19T21:31:46.808Z,8.00
2019-02-19T21:34:15.873Z,10.00
2019-02-19T21:36:46.504Z,11.00
2019-02-19T21:39:16.682Z,10.00
2019-02-19T21:41:45.717Z,8.00
2019-02-19T21:44:14.722Z,8.00
2019-02-19T21:46:43.728Z,9.00
2019-02-19T21:49:13.746Z,8.50
2019-02-19T21:51:42.829Z,10.00
2019-02-19T21:54:11.914Z,8.50
2019-02-19T21:56:41.787Z,11.50
2019-02-19T21:59:11.010Z,8.00
2019-02-19T22:01:40.125Z,8.50
2019-02-19T22:04:09.204Z,8.00
2019-02-19T22:06:38.263Z,7.50
2019-02-19T22:09:07.842Z,8.00
2019-02-19T22:11:37.060Z,10.00
2019-02-19T22:14:06.166Z,8.50
2019-02-19T22:16:36.533Z,9.00
2019-02-19T22:19:07.947Z,8.00
2019-02-19T22:22:03.239Z,8.00
2019-02-19T22:24:37.964Z,8.00
2019-02-19T22:27:08.084Z,8.00
2019-02-19T22:29:38.304Z,10.00
2019-02-19T22:32:07.941Z,10.00
2019-02-19T22:34:37.040Z,9.50
2019-02-19T22:37:06.090Z,9.00
2019-02-19T22:39:35.109Z,9.00
2019-02-19T22:42:09.327Z,11.00
2019-02-19T22:44:38.374Z,12.00
2019-02-19T22:47:07.471Z,14.50
2019-02-19T22:49:36.503Z,14.00
2019-02-19T22:52:12.635Z,13.50
2019-02-19T22:55:00.833Z,16.00
2019-02-19T22:57:29.943Z,16.00
2019-02-19T22:59:59.009Z,15.50
2019-02-19T23:02:29.834Z,14.00
2019-02-19T23:04:58.948Z,14.00
2019-02-19T23:07:28.037Z,16.00
2019-02-19T23:09:58.277Z,15.00
2019-02-19T23:12:27.405Z,14.00
2019-02-19T23:14:56.420Z,15.50
2019-02-19T23:17:25.551Z,11.50
2019-02-19T23:19:54.663Z,13.50
2019-02-19T23:22:23.779Z,16.00
2019-02-19T23:24:53.668Z,17.00
2019-02-19T23:27:22.792Z,14.00
2019-02-19T23:29:54.281Z,12.00
2019-02-19T23:32:25.652Z,14.50
2019-02-19T23:35:30.444Z,12.50
2019-02-19T23:38:00.291Z,12.00
2019-02-19T23:40:29.367Z,15.50
2019-02-19T23:42:58.547Z,10.50
2019-02-19T23:45:27.638Z,13.00
2019-02-19T23:47:58.120Z,12.00
2019-02-19T23:50:27.297Z,14.00
2019-02-19T23:52:56.404Z,12.00
2019-02-19T23:55:25.507Z,14.00
2019-02-19T23:57:54.929Z,17.50
